Time;durP1;ratioP1;P1;durP2;ratioP2;P2;SDS_P1;SDS_P2;PMS_P1;PMS_P2;Temp;Humidity;BMP_temperature;BMP_pressure;BME280_temperature;BME280_humidity;BME280_pressure;Samples;Min_cycle;Max_cycle;Signal;HPM_P1;HPM_P2
2021/05/09 00:00:36;;;;;;;;;;;;;;;25.48;32.61;101480.97;5057410;28;1906;-34
2021/05/09 00:03:04;;;;;;;;;;;;;;;25.49;32.54;101488.06;5053490;28;1516;-31
2021/05/09 00:05:29;;;;;;;;;;;;;;;25.50;32.64;101497.00;5049036;28;898;-36
2021/05/09 00:07:54;;;;;;;;;;;;;;;25.43;32.89;101491.38;5051907;28;755;-37
2021/05/09 00:10:20;;;;;;;;;;;;;;;25.49;32.64;101496.13;5036856;28;1066;-34
2021/05/09 00:12:46;;;;;;;;;;;;;;;25.46;32.84;101509.09;5037285;28;750;-33
2021/05/09 00:15:11;;;;;;;;;;;;;;;25.42;32.87;101509.38;5043487;28;874;-34
2021/05/09 00:17:37;;;;;;;;;;;;;;;25.51;32.69;101509.44;5057259;28;754;-33
2021/05/09 00:20:04;;;;;;;;;;;;;;;25.49;32.78;101517.69;5057159;28;1906;-37
2021/05/09 00:22:29;;;;;;;;;;;;;;;25.50;32.74;101510.47;5056853;28;743;-38
2021/05/09 00:24:55;;;;;;;;;;;;;;;25.46;32.82;101519.84;5043054;28;1015;-37
2021/05/09 00:27:20;;;;;;;;;;;;;;;25.44;33.02;101528.09;5042723;28;760;-32
2021/05/09 00:29:45;;;;;;;;;;;;;;;25.42;32.97;101522.00;5056509;28;812;-35
2021/05/09 00:35:14;;;;;;;;;;;;;;;25.45;32.74;101529.78;5056584;28;617;-34
2021/05/09 00:37:39;;;;;;;;;;;;;;;25.50;32.75;101535.56;5056760;28;870;-35
2021/05/09 00:40:05;;;;;;;;;;;;;;;25.54;32.52;101531.53;5023443;28;1995;-34
2021/05/09 00:42:31;;;;;;;;;;;;;;;25.54;32.68;101538.78;5036803;28;894;-37
2021/05/09 00:44:56;;;;;;;;;;;;;;;25.56;32.55;101539.47;5036758;28;858;-31
2021/05/09 00:47:21;;;;;;;;;;;;;;;25.53;32.61;101537.94;5037167;28;848;-33
2021/05/09 00:49:46;;;;;;;;;;;;;;;25.51;32.61;101539.94;5036532;28;891;-34
2021/05/09 00:52:12;;;;;;;;;;;;;;;25.50;32.56;101542.78;5036790;28;815;-33
2021/05/09 00:54:44;;;;;;;;;;;;;;;25.51;32.68;101547.16;5047913;28;917;-31
2021/05/09 00:57:09;;;;;;;;;;;;;;;25.45;32.56;101548.63;5057035;28;764;-37
2021/05/09 00:59:36;;;;;;;;;;;;;;;25.41;32.67;101550.78;5056071;28;1906;-32
2021/05/09 01:02:23;;;;;;;;;;;;;;;25.48;32.42;101559.09;5056511;28;819;-33
2021/05/09 01:04:48;;;;;;;;;;;;;;;25.51;32.54;101560.63;5056630;28;871;-37
2021/05/09 01:07:13;;;;;;;;;;;;;;;25.45;32.44;101559.41;5056650;28;799;-35
2021/05/09 01:09:39;;;;;;;;;;;;;;;25.53;32.31;101556.78;5056548;28;966;-36
2021/05/09 01:12:04;;;;;;;;;;;;;;;25.52;32.36;101565.03;5056433;28;843;-33
2021/05/09 01:14:29;;;;;;;;;;;;;;;25.53;32.04;101564.88;5056689;28;775;-37
2021/05/09 01:16:55;;;;;;;;;;;;;;;25.54;32.23;101571.13;5056533;28;776;-32
2021/05/09 01:19:20;;;;;;;;;;;;;;;25.57;32.11;101565.44;5056396;28;1909;-31
2021/05/09 01:21:47;;;;;;;;;;;;;;;25.53;32.12;101559.50;5055688;28;1092;-31
2021/05/09 01:24:12;;;;;;;;;;;;;;;25.50;32.09;101561.63;5048412;28;1034;-32
2021/05/09 01:26:37;;;;;;;;;;;;;;;25.54;31.99;101554.97;5036338;28;860;-37
2021/05/09 01:29:03;;;;;;;;;;;;;;;25.53;32.04;101551.41;5036398;28;887;-32
2021/05/09 01:31:28;;;;;;;;;;;;;;;25.54;31.89;101550.41;5036322;28;832;-33
2021/05/09 01:33:53;;;;;;;;;;;;;;;25.53;31.99;101546.03;5036607;28;799;-35
2021/05/09 01:36:54;;;;;;;;;;;;;;;25.52;32.01;101552.44;5036321;28;788;-34
2021/05/09 01:39:19;;;;;;;;;;;;;;;25.55;32.00;101545.88;5035930;28;1926;-36
2021/05/09 01:41:44;;;;;;;;;;;;;;;25.55;32.00;101548.56;5036679;28;780;-37
2021/05/09 01:44:10;;;;;;;;;;;;;;;25.53;32.05;101543.31;5040001;28;779;-37
2021/05/09 01:46:35;;;;;;;;;;;;;;;25.55;31.97;101549.41;5040094;28;891;-38
2021/05/09 01:49:00;;;;;;;;;;;;;;;25.54;32.10;101549.56;5039786;28;773;-35
2021/05/09 01:51:26;;;;;;;;;;;;;;;25.52;31.87;101551.56;5039907;28;822;-36
2021/05/09 01:53:52;;;;;;;;;;;;;;;25.59;31.90;101555.31;5039615;28;917;-33
2021/05/09 01:56:18;;;;;;;;;;;;;;;25.53;31.99;101546.03;5039624;28;800;-34
2021/05/09 01:58:43;;;;;;;;;;;;;;;25.52;31.90;101551.56;5039913;28;740;-31
2021/05/09 02:01:10;;;;;;;;;;;;;;;25.55;31.83;101554.81;5039729;28;2041;-33
2021/05/09 02:03:35;;;;;;;;;;;;;;;25.57;31.83;101560.03;5039282;28;803;-32
2021/05/09 02:06:00;;;;;;;;;;;;;;;25.58;31.72;101566.25;5039685;28;851;-37
2021/05/09 02:08:26;;;;;;;;;;;;;;;25.54;31.82;101563.03;5038994;28;999;-38
2021/05/09 02:10:51;;;;;;;;;;;;;;;25.49;32.04;101558.09;5039709;28;835;-38
2021/05/09 02:13:16;;;;;;;;;;;;;;;25.51;31.93;101557.94;5039580;28;859;-38
2021/05/09 02:15:41;;;;;;;;;;;;;;;25.54;31.77;101555.78;5039347;28;772;-37
2021/05/09 02:18:07;;;;;;;;;;;;;;;25.49;31.90;101559.94;5021685;28;1346;-34
2021/05/09 02:20:32;;;;;;;;;;;;;;;25.51;31.89;101563.31;5039240;28;1955;-35
2021/05/09 02:22:57;;;;;;;;;;;;;;;25.48;32.01;101556.41;5039156;28;834;-33
2021/05/09 02:25:22;;;;;;;;;;;;;;;25.56;31.69;101564.56;5056712;28;957;-31
2021/05/09 02:27:48;;;;;;;;;;;;;;;25.51;31.81;101557.94;5059366;28;826;-34
2021/05/09 02:30:13;;;;;;;;;;;;;;;25.53;31.62;101559.50;5058976;28;810;-32
2021/05/09 02:32:57;;;;;;;;;;;;;;;25.54;31.70;101561.19;5059015;28;793;-32
2021/05/09 02:35:22;;;;;;;;;;;;;;;25.55;31.59;101567.41;5059608;28;779;-32
2021/05/09 02:37:48;;;;;;;;;;;;;;;25.51;31.58;101566.88;5057149;28;816;-32
2021/05/09 02:40:13;;;;;;;;;;;;;;;25.44;31.55;101563.94;5058590;28;1914;-33
2021/05/09 02:42:38;;;;;;;;;;;;;;;25.50;31.39;101562.50;5059149;28;820;-38
2021/05/09 02:45:04;;;;;;;;;;;;;;;25.47;31.53;101568.19;5058817;28;790;-34
2021/05/09 02:47:29;;;;;;;;;;;;;;;25.48;31.56;101571.72;5058805;28;863;-37
2021/05/09 02:49:58;;;;;;;;;;;;;;;25.52;31.51;101570.41;5058665;28;803;-34
2021/05/09 02:52:23;;;;;;;;;;;;;;;25.01;29.17;101573.53;5058531;28;831;-38
2021/05/09 02:54:49;;;;;;;;;;;;;;;24.61;29.49;101575.50;5058470;28;955;-41
2021/05/09 02:57:14;;;;;;;;;;;;;;;24.52;29.01;101571.84;5058852;28;807;-42
2021/05/09 02:59:39;;;;;;;;;;;;;;;24.49;28.88;101580.19;5058604;28;1911;-37
2021/05/09 03:02:04;;;;;;;;;;;;;;;24.40;28.63;101572.00;5058536;28;747;-42
2021/05/09 03:04:30;;;;;;;;;;;;;;;24.42;28.71;101582.63;5058480;28;744;-35
2021/05/09 03:06:55;;;;;;;;;;;;;;;24.05;29.83;101587.72;5058450;28;752;-43
2021/05/09 03:09:20;;;;;;;;;;;;;;;23.89;29.60;101596.31;5058117;28;947;-41
2021/05/09 03:11:45;;;;;;;;;;;;;;;24.31;28.35;101591.66;5058221;28;756;-42
2021/05/09 03:14:11;;;;;;;;;;;;;;;24.39;28.00;101596.34;5058586;28;819;-36
2021/05/09 03:16:36;;;;;;;;;;;;;;;24.33;27.56;101601.31;5058339;28;819;-41
2021/05/09 03:19:01;;;;;;;;;;;;;;;24.15;27.81;101606.53;5057883;28;839;-41
2021/05/09 03:21:27;;;;;;;;;;;;;;;23.83;28.27;101607.63;5057844;28;1965;-42
2021/05/09 03:23:52;;;;;;;;;;;;;;;23.02;28.66;101618.25;5052363;28;963;-41
2021/05/09 03:26:17;;;;;;;;;;;;;;;22.44;29.26;101615.06;5038074;28;788;-36
2021/05/09 03:28:42;;;;;;;;;;;;;;;22.34;29.19;101623.03;5038069;28;784;-38
2021/05/09 03:31:08;;;;;;;;;;;;;;;22.17;29.09;101634.31;5038045;28;804;-42
2021/05/09 03:33:42;;;;;;;;;;;;;;;21.99;28.81;101641.06;5037808;28;760;-41
2021/05/09 03:36:08;;;;;;;;;;;;;;;21.89;28.92;101635.63;5048643;28;1285;-35
2021/05/09 03:38:33;;;;;;;;;;;;;;;21.57;29.17;101644.41;5056252;28;1053;-41
2021/05/09 03:40:58;;;;;;;;;;;;;;;19.68;32.25;101650.50;5057655;28;1910;-36
2021/05/09 03:43:23;;;;;;;;;;;;;;;18.13;35.34;101652.03;5057276;28;1120;-41
2021/05/09 03:45:49;;;;;;;;;;;;;;;18.46;36.41;101653.44;5057621;28;804;-40
2021/05/09 03:48:14;;;;;;;;;;;;;;;18.91;34.25;101647.75;5057680;28;776;-41
2021/05/09 03:50:39;;;;;;;;;;;;;;;18.69;33.78;101648.38;5051325;28;940;-36
2021/05/09 03:53:04;;;;;;;;;;;;;;;19.06;34.49;101656.50;5037187;28;831;-40
2021/05/09 03:55:30;;;;;;;;;;;;;;;20.18;32.16;101668.31;5054197;28;1109;-35
2021/05/09 03:57:55;;;;;;;;;;;;;;;21.09;31.67;101662.41;5056092;28;862;-39
2021/05/09 04:00:20;;;;;;;;;;;;;;;21.63;30.51;101675.19;5056498;28;1898;-41
2021/05/09 04:02:46;;;;;;;;;;;;;;;22.01;29.54;101673.09;5057804;28;784;-42
2021/05/09 04:05:11;;;;;;;;;;;;;;;22.19;29.50;101685.97;5053986;28;920;-39
2021/05/09 04:07:37;;;;;;;;;;;;;;;21.89;29.53;101683.84;5037392;28;780;-39
2021/05/09 04:10:03;;;;;;;;;;;;;;;21.95;28.80;101690.53;5037371;28;756;-42
2021/05/09 04:12:28;;;;;;;;;;;;;;;22.01;29.37;101694.53;5036590;28;740;-39
2021/05/09 04:14:53;;;;;;;;;;;;;;;22.49;28.88;101697.78;5037371;28;752;-39
2021/05/09 04:17:19;;;;;;;;;;;;;;;22.86;28.71;101700.06;5037212;28;823;-38
2021/05/09 04:19:44;;;;;;;;;;;;;;;23.02;29.02;101709.50;5036471;28;1906;-36
2021/05/09 04:22:09;;;;;;;;;;;;;;;23.20;29.07;101711.56;5055005;28;996;-37
2021/05/09 04:24:34;;;;;;;;;;;;;;;23.36;29.23;101717.31;5057127;28;848;-38
2021/05/09 04:27:00;;;;;;;;;;;;;;;23.51;29.45;101722.34;5057144;28;736;-38
2021/05/09 04:29:25;;;;;;;;;;;;;;;23.66;29.60;101722.81;5056702;28;803;-38
2021/05/09 04:31:50;;;;;;;;;;;;;;;23.76;29.49;101733.59;5041760;28;1131;-41
2021/05/09 04:34:16;;;;;;;;;;;;;;;23.84;29.67;101733.78;5037046;28;728;-39
2021/05/09 04:36:41;;;;;;;;;;;;;;;23.87;29.66;101738.03;5050573;28;924;-40
2021/05/09 04:39:06;;;;;;;;;;;;;;;23.95;29.73;101743.59;5056564;28;875;-39
2021/05/09 04:41:32;;;;;;;;;;;;;;;24.05;29.56;101745.44;5056752;28;1914;-41
2021/05/09 04:43:59;;;;;;;;;;;;;;;24.11;30.00;101747.56;5056167;28;764;-38
2021/05/09 04:46:24;;;;;;;;;;;;;;;24.14;30.23;101751.84;5056365;28;857;-39
2021/05/09 04:48:50;;;;;;;;;;;;;;;24.18;30.28;101750.59;5056843;28;742;-41
2021/05/09 04:51:15;;;;;;;;;;;;;;;24.26;30.28;101761.50;5071501;28;950;-40
2021/05/09 04:53:40;;;;;;;;;;;;;;;24.29;30.45;101765.75;5056973;28;740;-40
2021/05/09 04:56:06;;;;;;;;;;;;;;;24.40;30.39;101764.75;5056520;28;830;-41
2021/05/09 04:58:32;;;;;;;;;;;;;;;24.33;30.82;101765.34;5056141;28;849;-39
2021/05/09 05:01:01;;;;;;;;;;;;;;;24.43;31.17;101769.88;5056166;28;1905;-41
2021/05/09 05:03:29;;;;;;;;;;;;;;;24.46;31.45;101774.97;5056610;28;767;-41
2021/05/09 05:05:55;;;;;;;;;;;;;;;24.51;31.36;101782.59;5047801;28;994;-41
2021/05/09 05:08:20;;;;;;;;;;;;;;;24.61;31.30;101788.84;5036670;28;748;-40
2021/05/09 05:10:46;;;;;;;;;;;;;;;24.64;31.18;101785.88;5036356;28;836;-39
2021/05/09 05:13:18;;;;;;;;;;;;;;;24.68;31.46;101791.81;5036051;28;756;-38
2021/05/09 05:15:43;;;;;;;;;;;;;;;24.72;31.66;101795.94;5036944;28;824;-40
2021/05/09 05:18:09;;;;;;;;;;;;;;;24.76;31.55;101791.13;5040666;28;899;-35
2021/05/09 05:20:34;;;;;;;;;;;;;;;24.88;31.77;101799.91;5043812;28;1914;-40
2021/05/09 05:23:00;;;;;;;;;;;;;;;24.83;31.96;101805.72;5060473;28;796;-36
2021/05/09 05:25:25;;;;;;;;;;;;;;;24.90;31.74;101808.69;5060468;28;816;-39
2021/05/09 05:27:50;;;;;;;;;;;;;;;24.99;31.84;101801.63;5059764;28;775;-39
2021/05/09 05:30:16;;;;;;;;;;;;;;;24.88;31.89;101805.28;5058220;28;1044;-39
2021/05/09 05:32:42;;;;;;;;;;;;;;;24.84;31.94;101807.41;5040334;28;744;-39
2021/05/09 05:35:08;;;;;;;;;;;;;;;24.89;31.88;101807.81;5040447;28;903;-36
2021/05/09 05:37:33;;;;;;;;;;;;;;;24.99;31.95;101807.84;5060186;28;779;-38
2021/05/09 05:39:58;;;;;;;;;;;;;;;24.94;31.85;101808.28;5059841;28;1914;-39
2021/05/09 05:42:23;;;;;;;;;;;;;;;25.00;31.82;101811.41;5059512;28;815;-38
2021/05/09 05:44:49;;;;;;;;;;;;;;;25.04;31.73;101812.84;5060131;28;771;-39
2021/05/09 05:47:14;;;;;;;;;;;;;;;25.06;31.87;101808.13;5059674;28;889;-37
2021/05/09 05:49:39;;;;;;;;;;;;;;;25.05;31.95;101810.00;5059523;28;785;-38
2021/05/09 05:52:05;;;;;;;;;;;;;;;25.13;31.96;101811.97;5059898;28;908;-39
2021/05/09 05:54:30;;;;;;;;;;;;;;;25.15;31.79;101811.81;5059573;28;736;-40
2021/05/09 05:56:55;;;;;;;;;;;;;;;25.15;31.83;101812.69;5059216;28;882;-39
2021/05/09 05:59:20;;;;;;;;;;;;;;;25.19;31.90;101818.63;5059910;28;740;-39
2021/05/09 06:01:46;;;;;;;;;;;;;;;25.22;32.04;101817.47;5059169;28;1955;-39
2021/05/09 06:04:11;;;;;;;;;;;;;;;25.23;32.43;101821.84;5059280;28;783;-38
2021/05/09 06:06:36;;;;;;;;;;;;;;;25.18;32.42;101822.28;5059528;28;908;-40
2021/05/09 06:09:03;;;;;;;;;;;;;;;25.26;32.40;101833.19;5059404;28;802;-41
2021/05/09 06:11:28;;;;;;;;;;;;;;;25.29;32.22;101829.38;5059094;28;759;-39
2021/05/09 06:13:53;;;;;;;;;;;;;;;25.21;32.60;101829.25;5059534;28;835;-40
2021/05/09 06:16:19;;;;;;;;;;;;;;;25.17;32.78;101834.06;5059325;28;755;-40
2021/05/09 06:18:44;;;;;;;;;;;;;;;25.24;32.67;101835.19;5059067;28;838;-40
2021/05/09 06:21:09;;;;;;;;;;;;;;;25.19;32.85;101832.91;5059391;28;1902;-40
2021/05/09 06:23:34;;;;;;;;;;;;;;;25.21;32.60;101835.47;5059045;28;740;-41
2021/05/09 06:26:00;;;;;;;;;;;;;;;25.22;32.76;101837.19;5058908;28;840;-40
2021/05/09 06:28:25;;;;;;;;;;;;;;;25.24;32.65;101839.72;5058520;28;768;-40
2021/05/09 06:30:50;;;;;;;;;;;;;;;25.20;32.93;101852.63;5058848;28;1176;-40
2021/05/09 06:33:16;;;;;;;;;;;;;;;25.22;32.91;101853.34;5058882;28;839;-41
2021/05/09 06:35:41;;;;;;;;;;;;;;;25.23;32.64;101859.56;5058816;28;915;-40
2021/05/09 06:38:07;;;;;;;;;;;;;;;25.28;32.58;101851.91;5058878;28;836;-38
2021/05/09 06:40:36;;;;;;;;;;;;;;;25.27;32.76;101856.47;5058463;28;1910;-40
2021/05/09 06:43:01;;;;;;;;;;;;;;;25.29;32.90;101859.00;5059122;28;806;-40
2021/05/09 06:45:27;;;;;;;;;;;;;;;25.33;32.74;101856.84;5058810;28;754;-41
2021/05/09 06:47:53;;;;;;;;;;;;;;;25.30;32.75;101856.16;5058651;28;784;-38
2021/05/09 06:50:19;;;;;;;;;;;;;;;25.35;32.81;101854.88;5058276;28;920;-37
2021/05/09 06:52:44;;;;;;;;;;;;;;;25.40;32.94;101858.00;5058648;28;744;-37
2021/05/09 06:55:10;;;;;;;;;;;;;;;25.43;32.78;101874.72;5058455;28;798;-38
2021/05/09 06:57:36;;;;;;;;;;;;;;;25.48;32.73;101858.13;5058895;28;795;-37
2021/05/09 07:00:01;;;;;;;;;;;;;;;25.50;32.57;101855.28;5058214;28;1961;-36
2021/05/09 07:02:27;;;;;;;;;;;;;;;25.50;32.66;101866.06;5057965;28;898;-36
2021/05/09 07:04:52;;;;;;;;;;;;;;;25.58;32.83;101851.84;5057811;28;851;-36
2021/05/09 07:07:17;;;;;;;;;;;;;;;25.59;32.60;101859.78;5058042;28;903;-36
2021/05/09 07:09:42;;;;;;;;;;;;;;;25.58;32.54;101858.09;5058382;28;839;-38
2021/05/09 07:12:08;;;;;;;;;;;;;;;25.63;32.45;101860.38;5057564;28;788;-36
2021/05/09 07:14:33;;;;;;;;;;;;;;;25.64;32.20;101854.84;5058297;28;768;-34
2021/05/09 07:16:59;;;;;;;;;;;;;;;25.70;32.40;101850.72;5058408;28;756;-38
2021/05/09 07:19:24;;;;;;;;;;;;;;;25.74;32.48;101853.97;5057427;28;937;-38
2021/05/09 07:21:54;;;;;;;;;;;;;;;25.65;32.54;101851.16;5042116;28;2000;-38
2021/05/09 07:24:20;;;;;;;;;;;;;;;25.66;32.31;101850.16;5037801;28;826;-39
2021/05/09 07:26:47;;;;;;;;;;;;;;;25.68;32.27;101853.56;5037337;28;753;-38
2021/05/09 07:29:12;;;;;;;;;;;;;;;25.71;32.43;101855.09;5038463;28;761;-38
2021/05/09 07:31:40;;;;;;;;;;;;;;;25.78;32.45;101858.91;5050975;28;1188;-38
2021/05/09 07:34:06;;;;;;;;;;;;;;;25.78;32.25;101861.63;5057590;28;776;-38
2021/05/09 07:36:31;;;;;;;;;;;;;;;25.76;32.48;101860.91;5044895;28;928;-39
2021/05/09 07:38:57;;;;;;;;;;;;;;;25.76;32.51;101860.03;5037195;28;744;-41
2021/05/09 07:41:22;;;;;;;;;;;;;;;25.76;32.40;101862.75;5036591;28;2011;-37
2021/05/09 07:43:48;;;;;;;;;;;;;;;25.77;32.46;101862.63;5037926;28;917;-38
2021/05/09 07:46:13;;;;;;;;;;;;;;;25.77;32.29;101872.53;5037323;28;839;-37
2021/05/09 07:48:39;;;;;;;;;;;;;;;25.79;32.28;101874.09;5037456;28;763;-37
2021/05/09 07:51:04;;;;;;;;;;;;;;;25.83;32.35;101874.66;5037364;28;1015;-41
2021/05/09 07:53:29;;;;;;;;;;;;;;;25.79;32.29;101874.09;5037416;28;848;-40
2021/05/09 07:55:54;;;;;;;;;;;;;;;25.82;32.10;101874.78;5037321;28;751;-38
2021/05/09 07:58:20;;;;;;;;;;;;;;;25.84;32.25;101880.91;5037585;28;842;-39
2021/05/09 08:00:46;;;;;;;;;;;;;;;25.90;31.88;101870.38;5037513;28;1906;-39
2021/05/09 08:03:12;;;;;;;;;;;;;;;25.89;31.87;101876.75;5037194;28;788;-38
2021/05/09 08:05:37;;;;;;;;;;;;;;;25.94;32.11;101881.72;5037144;28;999;-38
2021/05/09 08:08:02;;;;;;;;;;;;;;;25.89;32.27;101876.75;5037371;28;780;-37
2021/05/09 08:10:30;;;;;;;;;;;;;;;25.90;32.21;101881.16;5051979;28;1133;-38
2021/05/09 08:12:55;;;;;;;;;;;;;;;25.91;32.10;101882.84;5036845;28;513;-38
2021/05/09 08:15:23;;;;;;;;;;;;;;;25.93;32.00;101885.41;5037399;28;776;-38
2021/05/09 08:17:49;;;;;;;;;;;;;;;25.95;32.17;101885.25;5036962;28;836;-37
2021/05/09 08:20:14;;;;;;;;;;;;;;;25.97;32.26;101881.41;5038733;28;1910;-38
2021/05/09 08:22:40;;;;;;;;;;;;;;;26.11;32.16;101876.53;5057139;28;762;-39
2021/05/09 08:25:06;;;;;;;;;;;;;;;26.17;31.94;101876.78;5056411;28;834;-37
2021/05/09 08:27:33;;;;;;;;;;;;;;;26.13;32.20;101882.63;5056616;28;995;-36
2021/05/09 08:29:59;;;;;;;;;;;;;;;26.07;31.63;101881.38;5057357;28;743;-40
2021/05/09 08:32:24;;;;;;;;;;;;;;;26.16;31.28;101888.56;5036815;28;1198;-37
2021/05/09 08:34:50;;;;;;;;;;;;;;;26.09;31.61;101878.53;5036852;28;799;-38
2021/05/09 08:37:15;;;;;;;;;;;;;;;26.10;31.79;101877.53;5056191;28;939;-35
2021/05/09 08:39:40;;;;;;;;;;;;;;;26.13;31.55;101882.63;5056331;28;1979;-36
2021/05/09 08:42:06;;;;;;;;;;;;;;;26.15;31.63;101881.50;5056691;28;811;-38
2021/05/09 08:44:33;;;;;;;;;;;;;;;26.14;31.24;101878.94;5056951;28;755;-36
2021/05/09 08:46:59;;;;;;;;;;;;;;;26.13;31.46;101882.63;5056419;28;822;-39
2021/05/09 08:49:24;;;;;;;;;;;;;;;26.12;31.74;101889.88;5056642;28;752;-39
2021/05/09 08:51:50;;;;;;;;;;;;;;;26.13;31.55;101888.88;5070885;28;967;-37
2021/05/09 08:54:15;;;;;;;;;;;;;;;26.20;31.50;101882.88;5056161;28;763;-40
2021/05/09 08:56:40;;;;;;;;;;;;;;;26.24;31.44;101892.38;5056715;28;827;-39
2021/05/09 08:59:06;;;;;;;;;;;;;;;26.29;31.14;101890.91;5057010;28;768;-39
2021/05/09 09:01:32;;;;;;;;;;;;;;;26.29;31.24;101895.47;5055959;28;1950;-38
2021/05/09 09:03:57;;;;;;;;;;;;;;;26.27;31.37;101892.06;5056687;28;736;-37
2021/05/09 09:06:58;;;;;;;;;;;;;;;26.27;31.31;101886.69;5044845;28;1455;-36
2021/05/09 09:09:23;;;;;;;;;;;;;;;26.22;31.45;101892.53;4974988;28;1418;-37
2021/05/09 09:11:50;;;;;;;;;;;;;;;26.27;31.49;101886.69;5024035;28;911;-38
2021/05/09 09:14:15;;;;;;;;;;;;;;;26.28;31.43;101888.38;5036582;28;798;-39
2021/05/09 09:16:40;;;;;;;;;;;;;;;26.36;30.99;101896.59;5018431;28;1263;-39
2021/05/09 09:19:13;;;;;;;;;;;;;;;26.37;31.11;101897.47;5036004;28;859;-38
2021/05/09 09:21:38;;;;;;;;;;;;;;;26.36;31.42;101895.78;5049744;28;1981;-38
2021/05/09 09:24:07;;;;;;;;;;;;;;;26.37;31.65;101892.06;5055497;28;804;-40
2021/05/09 09:26:35;;;;;;;;;;;;;;;26.41;31.20;101890.75;5071959;28;1479;-40
2021/05/09 09:29:02;;;;;;;;;;;;;;;26.35;31.39;101885.97;5056257;28;790;-40
2021/05/09 09:31:36;;;;;;;;;;;;;;;26.33;31.64;101885.25;5044295;28;1163;-40
2021/05/09 09:34:02;;;;;;;;;;;;;;;26.36;31.51;101884.97;5036842;28;767;-41
2021/05/09 09:36:27;;;;;;;;;;;;;;;26.33;31.40;101885.25;5047817;28;971;-40
2021/05/09 09:38:52;;;;;;;;;;;;;;;26.36;31.17;101891.19;5055986;28;803;-40
2021/05/09 09:41:22;;;;;;;;;;;;;;;26.43;30.90;101890.59;5056176;28;1902;-34
2021/05/09 09:44:07;;;;;;;;;;;;;;;26.39;30.55;101892.75;5056141;28;779;-39
2021/05/09 09:46:35;;;;;;;;;;;;;;;26.36;30.69;101896.59;5055928;28;791;-41
2021/05/09 09:49:01;;;;;;;;;;;;;;;26.32;31.26;101899.72;5055892;28;816;-40
2021/05/09 09:51:26;;;;;;;;;;;;;;;26.29;31.33;101907.09;5055762;28;947;-40
2021/05/09 09:53:53;;;;;;;;;;;;;;;26.31;31.20;101903.44;5055828;28;847;-40
2021/05/09 09:56:18;;;;;;;;;;;;;;;26.32;31.06;101905.97;5055940;28;795;-40
2021/05/09 09:58:45;;;;;;;;;;;;;;;26.32;30.98;101900.56;5055846;28;784;-40
2021/05/09 10:01:10;;;;;;;;;;;;;;;26.27;30.97;101897.47;5037449;28;1906;-40
2021/05/09 10:03:36;;;;;;;;;;;;;;;26.25;31.09;101897.63;5057753;28;815;-41
2021/05/09 10:06:01;;;;;;;;;;;;;;;26.25;31.21;101903.03;5059437;28;952;-40
2021/05/09 10:08:26;;;;;;;;;;;;;;;26.24;31.39;101905.88;5058498;28;759;-40
2021/05/09 10:10:51;;;;;;;;;;;;;;;26.29;31.30;101907.09;5059084;28;838;-39
2021/05/09 10:13:18;;;;;;;;;;;;;;;26.22;31.49;101900.63;5059622;28;883;-38
2021/05/09 10:15:43;;;;;;;;;;;;;;;26.22;31.34;101910.56;5074431;28;985;-39
2021/05/09 10:18:09;;;;;;;;;;;;;;;26.23;31.50;101912.25;5059442;28;752;-39
2021/05/09 10:20:34;;;;;;;;;;;;;;;26.25;31.71;101912.94;5066214;28;1983;-39
2021/05/09 10:23:03;;;;;;;;;;;;;;;26.20;31.81;101913.41;5039210;28;870;-40
2021/05/09 10:25:51;;;;;;;;;;;;;;;26.25;31.58;101919.19;5039631;28;803;-39
2021/05/09 10:28:18;;;;;;;;;;;;;;;26.24;31.53;101911.25;5031040;28;1584;-40
2021/05/09 10:30:44;;;;;;;;;;;;;;;26.25;31.64;101916.50;5038870;28;1184;-40
2021/05/09 10:33:09;;;;;;;;;;;;;;;26.27;31.46;101914.50;5039261;28;772;-39
2021/05/09 10:35:35;;;;;;;;;;;;;;;26.29;31.62;101907.09;5034189;28;916;-39
2021/05/09 10:38:01;;;;;;;;;;;;;;;26.19;31.79;101916.25;5018844;28;810;-39
2021/05/09 10:40:27;;;;;;;;;;;;;;;26.21;31.84;101906.16;5019478;28;1902;-40
2021/05/09 10:43:05;;;;;;;;;;;;;;;26.28;31.64;101912.66;5019396;28;775;-39
2021/05/09 10:45:30;;;;;;;;;;;;;;;26.24;31.86;101914.78;5018366;28;832;-39
2021/05/09 10:48:18;;;;;;;;;;;;;;;26.29;31.79;101908.97;5019207;28;837;-39
2021/05/09 10:50:44;;;;;;;;;;;;;;;26.31;32.19;101915.03;5024500;28;969;-40
2021/05/09 10:53:09;;;;;;;;;;;;;;;26.23;32.01;101907.69;5038519;28;745;-40
2021/05/09 10:55:38;;;;;;;;;;;;;;;26.28;32.05;101908.09;5038634;28;687;-40
2021/05/09 10:58:03;;;;;;;;;;;;;;;26.28;32.17;101910.81;5038666;28;796;-40
2021/05/09 11:00:29;;;;;;;;;;;;;;;26.33;31.89;101913.09;5038223;28;1969;-39
2021/05/09 11:02:54;;;;;;;;;;;;;;;26.33;32.26;101920.31;5054177;28;807;-40
2021/05/09 11:05:20;;;;;;;;;;;;;;;26.34;32.04;101916.63;5037963;28;1126;-39
2021/05/09 11:07:46;;;;;;;;;;;;;;;26.38;32.05;101907.22;5038535;28;762;-40
2021/05/09 11:10:40;;;;;;;;;;;;;;;26.37;32.26;101905.53;5038488;28;759;-40
2021/05/09 11:13:06;;;;;;;;;;;;;;;26.38;32.20;101904.53;5033235;28;1313;-40
2021/05/09 11:15:32;;;;;;;;;;;;;;;26.34;32.04;101903.16;5037903;28;787;-40
2021/05/09 11:17:57;;;;;;;;;;;;;;;26.42;32.16;101897.84;5037983;28;851;-40
2021/05/09 11:20:23;;;;;;;;;;;;;;;26.42;32.08;101895.16;5044279;28;1993;-39
2021/05/09 11:22:48;;;;;;;;;;;;;;;26.44;32.37;101898.56;5057864;28;791;-39
2021/05/09 11:25:14;;;;;;;;;;;;;;;26.39;31.98;101906.25;5058072;28;788;-38
2021/05/09 11:27:44;;;;;;;;;;;;;;;26.37;32.28;101900.16;5058120;28;842;-40
2021/05/09 11:30:10;;;;;;;;;;;;;;;26.38;32.22;101905.41;5057829;28;1132;-40
2021/05/09 11:32:35;;;;;;;;;;;;;;;26.37;32.29;101898.31;5057982;28;775;-40
2021/05/09 11:35:03;;;;;;;;;;;;;;;26.35;32.11;101899.44;5073404;28;920;-39
2021/05/09 11:37:32;;;;;;;;;;;;;;;26.36;31.94;101904.69;5057520;28;837;-40
2021/05/09 11:40:00;;;;;;;;;;;;;;;26.27;32.23;101892.94;5057632;28;1969;-38
2021/05/09 11:42:27;;;;;;;;;;;;;;;26.34;32.15;101900.47;5057849;28;776;-39
2021/05/09 11:44:52;;;;;;;;;;;;;;;26.31;32.00;101906.94;5057509;28;819;-40
2021/05/09 11:47:23;;;;;;;;;;;;;;;26.25;32.27;101908.41;5057527;28;777;-39
2021/05/09 11:49:48;;;;;;;;;;;;;;;26.08;27.04;101907.34;5049464;28;825;-41
2021/05/09 11:52:17;;;;;;;;;;;;;;;25.96;24.74;101898.56;5038693;28;944;-39
2021/05/09 11:54:43;;;;;;;;;;;;;;;25.99;23.84;101898.28;5037510;28;847;-37
2021/05/09 11:57:09;;;;;;;;;;;;;;;25.95;23.43;101906.81;5036958;28;820;-39
2021/05/09 11:59:40;;;;;;;;;;;;;;;25.83;22.94;101898.03;5036756;28;811;-37
2021/05/09 12:02:12;;;;;;;;;;;;;;;25.86;22.71;101903.16;5037409;28;1971;-39
2021/05/09 12:04:37;;;;;;;;;;;;;;;25.78;22.75;101904.75;5037540;28;883;-39
2021/05/09 12:07:03;;;;;;;;;;;;;;;25.73;22.22;101898.94;5037001;28;1066;-40
2021/05/09 12:09:28;;;;;;;;;;;;;;;25.71;21.42;101897.41;5037338;28;898;-40
2021/05/09 12:11:54;;;;;;;;;;;;;;;25.61;21.37;101890.13;5036596;28;843;-39
2021/05/09 12:14:19;;;;;;;;;;;;;;;25.58;21.58;101886.88;5052226;28;746;-40
2021/05/09 12:16:45;;;;;;;;;;;;;;;25.64;21.50;101886.34;5037437;28;780;-40
2021/05/09 12:19:10;;;;;;;;;;;;;;;25.55;21.09;101885.31;5037314;28;815;-41
2021/05/09 12:21:35;;;;;;;;;;;;;;;25.58;21.03;101871.56;5049688;28;1910;-40
2021/05/09 12:24:04;;;;;;;;;;;;;;;25.53;21.07;101872.00;5057072;28;831;-39
2021/05/09 12:26:29;;;;;;;;;;;;;;;25.49;20.79;101875.13;5056519;28;769;-40
2021/05/09 12:28:54;;;;;;;;;;;;;;;25.41;20.69;101874.00;5056518;28;750;-40
2021/05/09 12:31:19;;;;;;;;;;;;;;;25.40;20.94;101882.22;5072040;28;1324;-40
2021/05/09 12:33:48;;;;;;;;;;;;;;;25.40;21.23;101874.16;5056955;28;895;-38
2021/05/09 12:36:14;;;;;;;;;;;;;;;25.39;21.12;101884.06;5056256;28;920;-40
2021/05/09 12:38:39;;;;;;;;;;;;;;;25.57;20.74;101888.72;5057225;28;766;-39
2021/05/09 12:41:05;;;;;;;;;;;;;;;25.35;20.54;101885.34;5056604;28;1898;-38
2021/05/09 12:43:43;;;;;;;;;;;;;;;25.37;20.71;101883.38;5056230;28;818;-40
2021/05/09 12:46:09;;;;;;;;;;;;;;;25.30;20.63;101887.63;5056890;28;784;-39
2021/05/09 12:48:34;;;;;;;;;;;;;;;25.33;20.94;101891.88;5072307;28;825;-39
2021/05/09 12:50:59;;;;;;;;;;;;;;;25.26;21.28;101878.97;5047348;28;1441;-41
2021/05/09 12:53:35;;;;;;;;;;;;;;;25.24;21.34;101877.44;5037100;28;788;-39